payamesaba24.ir alexa rank chart, payamesaba24.ir alexa rank daily changes

payamesaba24.ir alexa rank chart, payamesaba24.ir alexa rank daily changes

payamesaba24.ir
Actual rank:
255 544

RANK HISTORY

Date Rank Diff
2017/04/25 255 544 +5 127
2017/04/24 250 417 -10 804
2017/04/23 261 221 +6 934
2017/04/22 254 287 -6 776
2017/04/21 261 063 -3 197
2017/04/20 264 260 +5 453
2017/04/19 258 807 -2 549
2017/04/18 261 356 +1 703
2017/04/17 259 653 -6 975
2017/04/16 266 628 +10 118
2017/04/15 256 510 -4 774
2017/04/14 261 284 +6 957
2017/04/13 254 327 +5 845
2017/04/12 248 482 -4 137
2017/04/11 252 619 +1 932
2017/04/10 250 687 +4 231
2017/04/09 246 456 +4 514
2017/04/08 241 942 +1 725
2017/04/07 240 217 +2 922
2017/04/06 237 295 -2 874
2017/04/05 240 169 +3 042
2017/04/04 237 127 +8 748
2017/04/03 228 379 +2 619
2017/04/02 225 760 +4 420
2017/04/01 221 340 -2 921
2017/03/31 224 261 +4 184
2017/03/30 220 077 +1 732
2017/03/29 218 345 +499
2017/03/28 217 846 +3 568
2017/03/27 214 278 +240
2017/03/26 214 038 -10 714
2017/03/25 224 752 -8 696
2017/03/24 233 448 +6 315
2017/03/23 227 133 +2 192
2017/03/22 224 941 +4 820
2017/03/21 220 121 -60
2017/03/20 220 181 -1 411
2017/03/19 221 592 -835
2017/03/18 222 427 -6 369
2017/03/17 228 796 -1 871
2017/03/16 230 667 -1 692
2017/03/15 232 359 +2 847
2017/03/14 229 512 -7 454
2017/03/13 236 966 +2 232
2017/03/12 234 734 -1 610
2017/03/11 236 344 -8 728
2017/03/10 245 072 -6 832
2017/03/09 251 904 -1 949
2017/03/08 253 853 -8 108
2017/03/07 261 961 +376
2017/03/06 261 585 +309
2017/03/01 261 276 -662
2017/02/28 261 938 -5 690
2017/02/27 267 628 +604
2017/02/26 267 024 +1 211
2017/02/25 265 813 -3 834
2017/02/24 269 647

WIDGET FOR YOUR SITE

DOMAINS WITH THE NEAREST RANK

Domain Rank
reducmiz.com 255 539
cacingnaga.com 255 540
novellshareware.com 255 541
constructionnews.co.uk 255 542
nsk.hr 255 543
payamesaba24.ir 255 544
hispeedcams.com 255 545
realclear.com 255 546
nisshin-pharma.com 255 547
convertbox.net 255 548
lineamonterrey.com.mx 255 549

DOMAINS WITH THE NEAREST RANK BY TLD .ir

Domain Rank
empireoflies.ir 255 167
1roman.ir 255 348
ja24.ir 255 379
iran-azmoon.ir 255 421
tinablog.ir 255 532
payamesaba24.ir 255 544
feedgah.ir 255 554
binoculars.ir 255 564
sanaad.ir 255 568
zanjanedu.ir 255 638
digiseda.ir 255 681